Time;durP1;ratioP1;P1;durP2;ratioP2;P2;SDS_P1;SDS_P2;PMS_P1;PMS_P2;Temp;Humidity;BMP_temperature;BMP_pressure;BME280_temperature;BME280_humidity;BME280_pressure;Samples;Min_cycle;Max_cycle;Signal;HPM_P1;HPM_P2
2022/07/29 00:00:40;;;;;;;0.43;0.20;;;20.70;72.70;;;;;;4945100;28;20043;-80
2022/07/29 00:03:06;;;;;;;0.20;0.20;;;20.80;72.80;;;;;;4941872;29;20522;-82
2022/07/29 00:05:31;;;;;;;0.10;0.10;;;20.80;72.50;;;;;;4943761;29;20109;-81
2022/07/29 00:07:57;;;;;;;0.17;0.10;;;20.70;72.60;;;;;;4944267;29;20063;-82
2022/07/29 00:10:23;;;;;;;0.10;0.10;;;20.60;73.10;;;;;;4942833;29;20069;-81
2022/07/29 00:12:48;;;;;;;0.00;0.00;;;20.60;73.80;;;;;;4942856;29;20563;-81
2022/07/29 00:15:14;;;;;;;0.07;0.07;;;20.60;73.90;;;;;;4942361;29;20047;-80
2022/07/29 00:17:40;;;;;;;1.23;0.27;;;20.60;73.50;;;;;;4944041;29;20078;-81
2022/07/29 00:20:07;;;;;;;0.00;0.00;;;20.60;73.30;;;;;;4944601;29;20058;-82
2022/07/29 00:22:32;;;;;;;0.00;0.00;;;20.40;73.90;;;;;;4943652;29;20031;-82
2022/07/29 00:24:58;;;;;;;0.00;0.00;;;20.40;74.10;;;;;;4942680;29;20047;-82
2022/07/29 00:27:24;;;;;;;0.00;0.00;;;20.40;74.30;;;;;;4942637;29;20029;-83
2022/07/29 00:29:49;;;;;;;0.10;0.10;;;20.40;74.00;;;;;;4936729;29;20039;-83
2022/07/29 00:32:15;;;;;;;0.00;0.00;;;20.40;74.30;;;;;;4925572;29;20035;-82
2022/07/29 00:37:25;;;;;;;1.65;1.20;;;20.40;74.80;;;;;;4942908;29;20062;-81
2022/07/29 00:39:51;;;;;;;0.00;0.00;;;20.30;74.80;;;;;;4942835;29;20079;-81
2022/07/29 00:42:17;;;;;;;0.10;0.10;;;20.40;74.60;;;;;;4942436;29;20081;-80
2022/07/29 00:44:43;;;;;;;0.15;0.10;;;20.30;74.90;;;;;;4941465;29;20031;-80
2022/07/29 00:47:12;;;;;;;0.40;0.20;;;20.30;75.30;;;;;;4943213;29;20065;-80
2022/07/29 00:49:40;;;;;;;0.10;0.10;;;20.20;75.10;;;;;;4946455;28;20094;-81
2022/07/29 00:52:07;;;;;;;0.00;0.00;;;20.30;75.60;;;;;;4941330;29;20042;-86
2022/07/29 00:54:34;;;;;;;0.47;0.03;;;20.30;75.50;;;;;;4944212;29;20047;-86
2022/07/29 00:57:00;;;;;;;0.10;0.10;;;20.30;76.40;;;;;;4943444;29;20054;-87
2022/07/29 00:59:28;;;;;;;0.15;0.15;;;20.40;75.90;;;;;;4948112;28;20114;-85
2022/07/29 01:01:55;;;;;;;0.45;0.40;;;20.30;76.10;;;;;;4947362;29;21049;-87
2022/07/29 01:04:24;;;;;;;0.08;0.08;;;20.30;76.30;;;;;;4946075;29;20039;-87
2022/07/29 01:06:50;;;;;;;0.15;0.05;;;20.30;76.50;;;;;;4945275;29;20039;-86
2022/07/29 01:09:17;;;;;;;0.00;0.00;;;20.30;76.70;;;;;;4945979;29;20027;-86
2022/07/29 01:11:45;;;;;;;0.00;0.00;;;20.30;76.80;;;;;;4946299;29;20547;-86
2022/07/29 01:14:11;;;;;;;0.35;0.25;;;20.20;77.50;;;;;;4945771;29;20398;-87
2022/07/29 01:16:45;;;;;;;0.20;0.20;;;20.30;77.40;;;;;;4942177;29;20051;-86
2022/07/29 01:19:50;;;;;;;0.05;0.05;;;20.20;77.50;;;;;;4948017;29;20050;-87
2022/07/29 01:22:34;;;;;;;0.10;0.10;;;20.30;77.50;;;;;;4944506;28;20047;-85
2022/07/29 01:25:19;;;;;;;0.03;0.03;;;20.30;78.40;;;;;;4946666;29;20039;-87
2022/07/29 01:27:48;;;;;;;0.00;0.00;;;20.20;79.00;;;;;;4928385;29;20035;-86
2022/07/29 01:30:14;;;;;;;0.28;0.20;;;20.10;79.50;;;;;;4943859;29;20020;-85
2022/07/29 01:32:42;;;;;;;0.00;0.00;;;20.00;80.40;;;;;;4929215;29;20030;-88
2022/07/29 01:35:36;;;;;;;0.00;0.00;;;19.90;80.60;;;;;;4946771;29;20138;-86
2022/07/29 01:38:10;;;;;;;0.13;0.08;;;19.90;81.20;;;;;;4943767;29;20042;-87
2022/07/29 01:40:47;;;;;;;0.10;0.10;;;19.90;81.20;;;;;;4946790;29;20038;-86
2022/07/29 01:43:27;;;;;;;1.98;0.55;;;19.90;81.60;;;;;;4945651;29;20487;-87
2022/07/29 01:45:55;;;;;;;3.50;1.08;;;19.80;81.80;;;;;;4944945;29;20468;-86
2022/07/29 01:48:41;;;;;;;0.00;0.00;;;19.80;82.10;;;;;;4929862;29;20031;-88
2022/07/29 01:51:23;;;;;;;0.10;0.10;;;19.70;83.10;;;;;;4947328;29;20066;-81
2022/07/29 01:54:01;;;;;;;0.00;0.00;;;19.60;83.70;;;;;;4944288;29;20094;-80
2022/07/29 01:56:30;;;;;;;0.10;0.10;;;19.60;84.00;;;;;;4945075;29;20039;-79
2022/07/29 01:58:57;;;;;;;0.00;0.00;;;19.60;84.10;;;;;;4947203;28;20053;-79
2022/07/29 02:01:24;;;;;;;;;;;19.50;84.70;;;;;;4944376;28;20038;-80
2022/07/29 02:03:50;;;;;;;;;;;19.50;85.30;;;;;;4944848;29;19965;-80
2022/07/29 02:06:20;;;;;;;0.10;0.10;;;19.50;85.40;;;;;;4945210;29;20402;-80
2022/07/29 02:08:48;;;;;;;1.98;0.20;;;19.40;85.80;;;;;;4944960;29;20435;-80
2022/07/29 02:11:14;;;;;;;0.17;0.17;;;19.30;86.30;;;;;;4946222;29;20082;-81
2022/07/29 02:13:41;;;;;;;1.60;0.13;;;19.30;86.80;;;;;;4945896;29;20304;-80
2022/07/29 02:16:08;;;;;;;;;;;19.30;87.40;;;;;;4944772;29;20047;-80
2022/07/29 02:18:36;;;;;;;0.30;0.30;;;19.30;87.50;;;;;;4944434;29;19926;-83
2022/07/29 02:21:03;;;;;;;0.00;0.00;;;19.20;88.30;;;;;;4945267;29;20023;-82
2022/07/29 02:23:32;;;;;;;0.05;0.05;;;19.30;88.90;;;;;;4945020;29;20055;-82
2022/07/29 02:25:59;;;;;;;0.20;0.20;;;19.20;89.20;;;;;;4945246;29;20537;-82
2022/07/29 02:28:30;;;;;;;0.00;0.00;;;19.20;89.70;;;;;;4940127;29;20035;-82
2022/07/29 02:31:00;;;;;;;0.20;0.20;;;19.00;90.30;;;;;;4944188;29;20043;-80
2022/07/29 02:33:27;;;;;;;0.00;0.00;;;19.00;90.40;;;;;;4941093;29;20027;-81
2022/07/29 02:35:54;;;;;;;0.50;0.50;;;19.00;90.80;;;;;;4944992;29;20041;-81
2022/07/29 02:41:13;;;;;;;0.10;0.10;;;19.10;91.70;;;;;;4945725;29;20082;-81
2022/07/29 02:43:43;;;;;;;0.00;0.00;;;19.10;92.30;;;;;;4927515;29;20465;-80
2022/07/29 02:46:14;;;;;;;0.20;0.20;;;19.00;93.00;;;;;;4944414;29;20027;-80
2022/07/29 02:48:48;;;;;;;0.00;0.00;;;19.20;92.60;;;;;;4939771;28;20033;-82
2022/07/29 02:51:28;;;;;;;0.00;0.00;;;19.10;92.80;;;;;;4920163;29;20031;-81
2022/07/29 02:54:01;;;;;;;0.10;0.10;;;19.10;93.10;;;;;;4937511;29;20578;-79
2022/07/29 02:56:29;;;;;;;1.65;0.40;;;19.10;93.10;;;;;;4944481;29;20118;-79
2022/07/29 02:58:59;;;;;;;0.00;0.00;;;19.00;93.50;;;;;;4946076;28;20039;-79
2022/07/29 03:01:28;;;;;;;0.00;0.00;;;19.00;93.70;;;;;;4946618;28;20039;-80
2022/07/29 03:03:55;;;;;;;0.30;0.30;;;18.90;94.60;;;;;;4944811;29;20070;-81
2022/07/29 03:06:22;;;;;;;;;;;18.90;95.20;;;;;;4944226;29;20031;-80
2022/07/29 03:08:49;;;;;;;13.15;0.38;;;19.00;95.50;;;;;;4943603;29;20003;-81
2022/07/29 03:11:15;;;;;;;0.00;0.00;;;19.00;95.60;;;;;;4943813;29;20604;-82
2022/07/29 03:13:41;;;;;;;0.10;0.10;;;19.00;96.20;;;;;;4944483;28;20027;-81
2022/07/29 03:16:08;;;;;;;;;;;19.00;96.80;;;;;;4943821;29;20058;-81
2022/07/29 03:18:34;;;;;;;0.38;0.38;;;19.00;96.70;;;;;;4941532;29;19922;-81
2022/07/29 03:21:00;;;;;;;0.03;0.03;;;19.10;96.40;;;;;;4942770;29;20043;-81
2022/07/29 03:23:27;;;;;;;0.10;0.10;;;19.20;95.80;;;;;;4938049;28;20028;-81
2022/07/29 03:25:54;;;;;;;0.20;0.20;;;19.10;96.30;;;;;;4943169;29;20027;-81
2022/07/29 03:28:21;;;;;;;1.88;0.28;;;19.10;96.80;;;;;;4943038;28;20038;-80
2022/07/29 03:30:46;;;;;;;0.00;0.00;;;19.00;97.30;;;;;;4945211;29;20051;-80
2022/07/29 03:33:12;;;;;;;0.10;0.10;;;19.10;97.40;;;;;;4944733;29;20462;-80
2022/07/29 03:35:38;;;;;;;0.37;0.20;;;19.10;97.30;;;;;;4942348;29;20414;-80
2022/07/29 03:38:04;;;;;;;0.30;0.30;;;18.90;97.40;;;;;;4943591;29;21040;-80
2022/07/29 03:40:58;;;;;;;0.63;0.63;;;18.90;97.30;;;;;;4944412;29;20043;-80
2022/07/29 03:43:28;;;;;;;0.17;0.17;;;18.90;97.40;;;;;;4842418;29;20051;-80
2022/07/29 03:45:56;;;;;;;0.08;0.08;;;18.70;98.20;;;;;;4846834;29;20045;-81
2022/07/29 03:48:25;;;;;;;0.03;0.03;;;18.60;98.30;;;;;;4845181;29;20041;-80
2022/07/29 03:50:51;;;;;;;0.05;0.05;;;18.50;98.30;;;;;;4842562;29;20037;-86
2022/07/29 03:53:17;;;;;;;0.40;0.32;;;18.60;98.40;;;;;;4840578;29;20063;-85
2022/07/29 03:55:46;;;;;;;0.05;0.05;;;18.60;98.30;;;;;;4839581;29;20050;-87
2022/07/29 03:58:14;;;;;;;0.00;0.00;;;18.60;98.50;;;;;;4846582;29;20037;-86
2022/07/29 04:00:42;;;;;;;0.20;0.20;;;18.70;98.10;;;;;;4847856;29;20049;-86
2022/07/29 04:03:09;;;;;;;1.98;0.17;;;18.60;98.40;;;;;;4847542;29;20112;-86
2022/07/29 04:05:34;;;;;;;0.00;0.00;;;18.70;98.30;;;;;;4846631;29;20071;-85
2022/07/29 04:08:00;;;;;;;0.07;0.07;;;18.70;98.50;;;;;;4848656;29;20124;-88
2022/07/29 04:10:27;;;;;;;0.07;0.07;;;18.60;98.60;;;;;;4851685;29;20029;-86
2022/07/29 04:12:52;;;;;;;0.17;0.17;;;18.60;99.10;;;;;;4846137;29;20042;-89
2022/07/29 04:15:18;;;;;;;0.07;0.07;;;18.60;98.70;;;;;;4847693;29;20478;-89
2022/07/29 04:17:44;;;;;;;0.00;0.00;;;18.60;98.70;;;;;;4849652;29;20072;-88
2022/07/29 04:20:12;;;;;;;0.00;0.00;;;18.70;98.50;;;;;;4884256;29;20057;-87
2022/07/29 04:22:39;;;;;;;0.68;0.30;;;18.80;98.00;;;;;;4923421;29;20038;-83
2022/07/29 04:25:05;;;;;;;0.10;0.10;;;18.80;97.90;;;;;;4927041;29;20070;-83
2022/07/29 04:27:30;;;;;;;0.20;0.20;;;18.80;98.00;;;;;;4925771;29;20139;-84
2022/07/29 04:29:56;;;;;;;0.00;0.00;;;18.70;98.60;;;;;;4928452;29;20715;-84
2022/07/29 04:32:22;;;;;;;0.33;0.33;;;18.50;99.30;;;;;;4926182;29;20110;-85
2022/07/29 04:34:47;;;;;;;0.33;0.33;;;18.40;99.90;;;;;;4928569;29;20881;-85
2022/07/29 04:37:13;;;;;;;0.00;0.00;;;18.50;99.90;;;;;;4910992;29;20579;-83
2022/07/29 04:39:39;;;;;;;7.20;0.23;;;18.40;99.90;;;;;;4927744;29;20627;-84
2022/07/29 04:42:05;;;;;;;0.00;0.00;;;18.30;99.90;;;;;;4910525;29;20032;-81
2022/07/29 04:44:30;;;;;;;0.23;0.23;;;18.30;99.90;;;;;;4927655;29;20043;-84
2022/07/29 04:46:57;;;;;;;0.63;0.53;;;18.40;99.90;;;;;;4927458;29;20039;-84
2022/07/29 04:49:23;;;;;;;0.25;0.10;;;18.60;99.90;;;;;;4928091;29;20128;-85
2022/07/29 04:51:49;;;;;;;0.30;0.30;;;18.70;99.90;;;;;;4926514;29;20045;-89
2022/07/29 04:54:14;;;;;;;0.20;0.20;;;18.80;99.90;;;;;;4932234;29;20027;-88
2022/07/29 04:56:41;;;;;;;4.40;1.20;;;18.90;99.90;;;;;;4926929;29;20408;-87
2022/07/29 04:59:07;;;;;;;0.00;0.00;;;18.90;99.90;;;;;;4930444;29;20097;-87
2022/07/29 05:01:32;;;;;;;0.30;0.30;;;19.00;99.90;;;;;;4927917;29;20309;-85
2022/07/29 05:03:58;;;;;;;0.20;0.20;;;18.90;99.90;;;;;;4911685;29;20130;-85
2022/07/29 05:06:24;;;;;;;0.10;0.10;;;18.90;99.90;;;;;;4928283;29;20091;-89
2022/07/29 05:08:49;;;;;;;0.40;0.10;;;18.90;99.80;;;;;;4927611;29;20036;-85
2022/07/29 05:11:15;;;;;;;0.20;0.10;;;18.90;99.90;;;;;;4926064;29;20529;-88
2022/07/29 05:13:41;;;;;;;0.27;0.20;;;19.00;99.90;;;;;;4925632;29;20115;-82
2022/07/29 05:16:08;;;;;;;0.00;0.00;;;18.90;99.90;;;;;;4927067;29;20408;-84
2022/07/29 05:18:34;;;;;;;0.10;0.10;;;18.90;99.90;;;;;;4947479;29;20047;-86
2022/07/29 05:20:59;;;;;;;0.20;0.20;;;18.90;99.90;;;;;;4948355;29;20596;-86
2022/07/29 05:23:25;;;;;;;0.00;0.00;;;18.90;99.90;;;;;;4944370;29;20491;-85
2022/07/29 05:25:51;;;;;;;0.77;0.37;;;18.60;99.90;;;;;;4946346;29;20771;-86
2022/07/29 05:28:16;;;;;;;0.30;0.20;;;18.80;99.90;;;;;;4946109;29;20035;-87
2022/07/29 05:30:44;;;;;;;0.00;0.00;;;18.80;99.90;;;;;;4947436;29;20114;-86
2022/07/29 05:33:09;;;;;;;0.10;0.10;;;18.80;99.90;;;;;;4928074;29;20494;-86
2022/07/29 05:35:36;;;;;;;0.10;0.10;;;18.70;99.90;;;;;;4944970;28;20039;-88
2022/07/29 05:38:03;;;;;;;0.20;0.20;;;18.60;99.90;;;;;;4946057;29;20093;-88
2022/07/29 05:40:28;;;;;;;0.43;0.22;;;18.30;99.90;;;;;;4946161;28;20062;-87
2022/07/29 05:42:54;;;;;;;0.20;0.20;;;18.20;99.90;;;;;;4947182;29;20613;-88
2022/07/29 05:45:20;;;;;;;0.00;0.00;;;18.30;99.90;;;;;;4947032;29;20047;-88
2022/07/29 05:47:45;;;;;;;0.07;0.07;;;18.50;99.90;;;;;;4930548;29;20122;-88
2022/07/29 05:50:11;;;;;;;0.20;0.20;;;18.60;99.90;;;;;;4933799;29;20046;-89
2022/07/29 05:52:37;;;;;;;0.10;0.10;;;18.60;99.90;;;;;;4947426;29;20034;-80
2022/07/29 05:55:05;;;;;;;0.03;0.03;;;18.30;99.90;;;;;;4947041;29;20035;-77
2022/07/29 05:57:31;;;;;;;0.22;0.22;;;18.10;99.90;;;;;;4946413;29;20030;-77
2022/07/29 05:59:56;;;;;;;0.07;0.07;;;18.10;99.90;;;;;;4947989;28;20036;-77
2022/07/29 06:02:22;;;;;;;0.07;0.07;;;18.20;99.90;;;;;;4941354;29;20519;-76
2022/07/29 06:04:49;;;;;;;0.50;0.30;;;18.50;99.90;;;;;;4943919;29;20713;-77
2022/07/29 06:07:15;;;;;;;0.15;0.15;;;18.60;99.90;;;;;;4944185;29;20033;-77
2022/07/29 06:09:41;;;;;;;0.20;0.20;;;18.70;99.90;;;;;;4946785;29;20051;-77
2022/07/29 06:12:08;;;;;;;0.00;0.00;;;18.90;99.90;;;;;;4947135;29;20032;-76
2022/07/29 06:14:33;;;;;;;0.00;0.00;;;18.90;99.90;;;;;;4929085;29;20057;-77
2022/07/29 06:16:59;;;;;;;0.27;0.27;;;18.80;99.90;;;;;;4946857;29;20915;-78
2022/07/29 06:19:25;;;;;;;5.17;1.53;;;19.00;99.90;;;;;;4946021;29;20035;-78
2022/07/29 06:21:51;;;;;;;0.10;0.10;;;19.00;99.90;;;;;;4946033;29;20066;-79
2022/07/29 06:24:17;;;;;;;0.17;0.17;;;19.00;99.90;;;;;;4946104;29;20325;-79
2022/07/29 06:26:43;;;;;;;0.00;0.00;;;19.10;99.90;;;;;;4946657;28;20083;-79
2022/07/29 06:29:12;;;;;;;0.10;0.10;;;19.10;99.90;;;;;;4947372;29;20031;-79
2022/07/29 06:31:39;;;;;;;0.70;0.28;;;19.30;99.90;;;;;;4929006;29;20039;-79
2022/07/29 06:34:04;;;;;;;0.17;0.17;;;19.40;99.90;;;;;;4946922;29;20042;-79
2022/07/29 06:36:30;;;;;;;0.13;0.13;;;19.20;99.90;;;;;;4946810;29;20051;-79
2022/07/29 06:38:56;;;;;;;0.13;0.13;;;19.30;99.90;;;;;;4945067;29;20031;-79
2022/07/29 06:41:23;;;;;;;0.10;0.10;;;19.30;99.90;;;;;;4946343;29;20058;-80
2022/07/29 06:43:51;;;;;;;;;;;19.40;99.90;;;;;;4945208;29;20295;-79
2022/07/29 06:46:18;;;;;;;0.20;0.20;;;19.30;99.90;;;;;;4928544;28;19918;-80
2022/07/29 06:48:44;;;;;;;0.00;0.00;;;19.20;99.90;;;;;;4945707;29;20035;-80
2022/07/29 06:51:11;;;;;;;0.08;0.08;;;19.20;99.90;;;;;;4946252;29;20079;-79
2022/07/29 06:53:37;;;;;;;0.00;0.00;;;19.10;99.90;;;;;;4919696;29;20675;-80
2022/07/29 06:56:04;;;;;;;0.20;0.20;;;18.90;99.90;;;;;;4927945;29;20107;-80
2022/07/29 06:58:30;;;;;;;0.10;0.10;;;18.60;99.90;;;;;;4945591;29;20027;-80
2022/07/29 07:00:57;;;;;;;0.22;0.15;;;18.60;99.90;;;;;;4946977;28;20565;-80
2022/07/29 07:03:24;;;;;;;0.03;0.03;;;18.80;99.90;;;;;;4944626;29;20046;-80
2022/07/29 07:05:50;;;;;;;0.35;0.25;;;18.70;99.90;;;;;;4946038;29;20039;-80
2022/07/29 07:08:16;;;;;;;0.05;0.05;;;18.70;99.90;;;;;;4945526;29;20118;-80
2022/07/29 07:10:42;;;;;;;0.03;0.03;;;19.00;99.90;;;;;;4913353;29;20039;-80
2022/07/29 07:13:08;;;;;;;0.00;0.00;;;19.00;99.90;;;;;;4945270;29;20051;-81
2022/07/29 07:15:35;;;;;;;0.00;0.00;;;18.90;99.90;;;;;;4946244;29;20554;-81
2022/07/29 07:18:00;;;;;;;;;;;19.00;99.90;;;;;;4945914;29;20057;-80
2022/07/29 07:20:26;;;;;;;0.00;0.00;;;19.30;99.90;;;;;;4945803;29;20301;-79
2022/07/29 07:22:52;;;;;;;1.03;0.40;;;19.70;99.90;;;;;;4945594;29;20126;-80
2022/07/29 07:25:17;;;;;;;0.37;0.37;;;19.90;99.90;;;;;;4945632;29;20023;-80
2022/07/29 07:27:46;;;;;;;0.00;0.00;;;20.10;99.90;;;;;;4944928;29;20035;-80
2022/07/29 07:30:12;;;;;;;0.30;0.10;;;20.10;99.90;;;;;;4944891;29;20035;-80
2022/07/29 07:32:38;;;;;;;0.00;0.00;;;20.10;99.90;;;;;;4945115;29;20027;-80
2022/07/29 07:35:06;;;;;;;0.20;0.20;;;19.90;99.90;;;;;;4944431;29;20045;-80
2022/07/29 07:37:32;;;;;;;0.40;0.40;;;19.80;99.90;;;;;;4942800;29;20039;-81
2022/07/29 07:39:58;;;;;;;0.13;0.13;;;19.90;99.90;;;;;;4945281;29;20531;-81
2022/07/29 07:42:24;;;;;;;0.00;0.00;;;20.20;99.90;;;;;;4944619;29;20035;-81
2022/07/29 07:44:50;;;;;;;0.40;0.10;;;21.80;99.80;;;;;;4944977;29;20108;-79
2022/07/29 07:47:19;;;;;;;1.10;0.67;;;25.20;91.60;;;;;;4944675;29;20033;-80
2022/07/29 07:49:54;;;;;;;0.60;0.43;;;28.30;79.60;;;;;;4944992;29;20042;-79
2022/07/29 07:52:21;;;;;;;0.10;0.10;;;30.50;68.30;;;;;;4945813;29;20111;-82
2022/07/29 07:54:46;;;;;;;;;;;28.80;68.70;;;;;;4945889;29;20031;-81
2022/07/29 07:57:13;;;;;;;0.20;0.10;;;29.10;69.30;;;;;;4945241;29;19914;-81
2022/07/29 07:59:39;;;;;;;0.10;0.10;;;30.40;63.30;;;;;;4945105;28;20039;-80
2022/07/29 08:02:06;;;;;;;0.38;0.10;;;28.10;67.80;;;;;;4945536;29;20039;-80
2022/07/29 08:04:32;;;;;;;0.03;0.03;;;29.40;66.30;;;;;;4927451;29;20121;-80
2022/07/29 08:07:00;;;;;;;0.03;0.03;;;30.30;63.70;;;;;;4944770;29;20053;-81
2022/07/29 08:09:28;;;;;;;0.10;0.10;;;32.70;60.70;;;;;;4945110;29;20448;-81
2022/07/29 08:11:54;;;;;;;0.10;0.10;;;32.70;58.40;;;;;;4944768;29;20036;-81
2022/07/29 08:14:20;;;;;;;0.10;0.10;;;27.60;64.70;;;;;;4927412;29;20774;-80
2022/07/29 08:16:45;;;;;;;0.40;0.40;;;26.00;68.70;;;;;;4927732;29;20114;-80
2022/07/29 08:19:11;;;;;;;0.22;0.22;;;25.50;72.00;;;;;;4945447;29;20031;-81
2022/07/29 08:21:37;;;;;;;0.15;0.15;;;26.30;70.50;;;;;;4945015;29;20786;-80
2022/07/29 08:26:48;;;;;;;0.38;0.38;;;29.10;64.70;;;;;;4945035;29;19925;-80
2022/07/29 08:29:13;;;;;;;0.10;0.10;;;31.30;62.20;;;;;;4945176;29;20039;-80
2022/07/29 08:31:39;;;;;;;;;;;31.40;59.40;;;;;;4945360;29;20031;-80
2022/07/29 08:34:05;;;;;;;0.30;0.30;;;31.10;60.20;;;;;;4944881;29;20306;-82
2022/07/29 08:36:31;;;;;;;;;;;29.60;61.20;;;;;;4945381;29;20035;-81
2022/07/29 08:38:58;;;;;;;0.10;0.10;;;27.90;65.00;;;;;;4944897;29;19921;-81
2022/07/29 08:41:24;;;;;;;0.10;0.10;;;28.90;66.10;;;;;;4944799;29;20094;-81
2022/07/29 08:43:51;;;;;;;8.50;0.40;;;32.60;58.40;;;;;;4945141;29;20551;-80
2022/07/29 08:46:18;;;;;;;0.00;0.00;;;29.80;59.00;;;;;;4945052;29;20461;-80
2022/07/29 08:48:44;;;;;;;0.20;0.13;;;27.30;64.20;;;;;;4926855;29;20027;-80
2022/07/29 08:51:14;;;;;;;0.25;0.20;;;26.50;67.10;;;;;;4945276;29;20094;-85
2022/07/29 08:53:42;;;;;;;0.10;0.10;;;26.10;68.00;;;;;;4944529;29;20042;-84
2022/07/29 08:56:12;;;;;;;0.00;0.00;;;26.80;67.40;;;;;;4944276;29;20037;-83
2022/07/29 08:58:39;;;;;;;0.10;0.10;;;26.70;68.00;;;;;;4945411;29;20046;-84
2022/07/29 09:01:07;;;;;;;0.00;0.00;;;26.60;68.80;;;;;;4940270;29;20443;-85
2022/07/29 09:03:34;;;;;;;0.00;0.00;;;26.20;69.80;;;;;;4945085;29;20019;-84
2022/07/29 09:06:01;;;;;;;0.32;0.10;;;25.70;71.80;;;;;;4945191;29;20035;-84
2022/07/29 09:08:28;;;;;;;0.00;0.00;;;25.50;72.70;;;;;;4944539;29;20035;-84
2022/07/29 09:10:55;;;;;;;0.20;0.20;;;25.40;73.30;;;;;;4946671;28;20023;-83
2022/07/29 09:13:22;;;;;;;0.00;0.00;;;25.10;73.70;;;;;;4930529;29;20023;-87
2022/07/29 09:15:48;;;;;;;0.15;0.15;;;25.20;73.30;;;;;;4948059;29;20039;-85
2022/07/29 09:18:35;;;;;;;1.10;0.20;;;25.30;72.80;;;;;;4947718;29;20053;-85
2022/07/29 09:24:08;;;;;;;0.00;0.00;;;25.00;75.30;;;;;;4933624;29;20058;-86
2022/07/29 09:26:37;;;;;;;0.28;0.17;;;24.80;77.30;;;;;;4947916;29;20038;-87
2022/07/29 09:29:09;;;;;;;0.10;0.10;;;24.60;77.90;;;;;;4948391;29;20035;-87
2022/07/29 09:31:37;;;;;;;0.20;0.20;;;24.30;80.30;;;;;;4930082;29;20130;-85
2022/07/29 09:34:04;;;;;;;4.38;0.22;;;24.30;82.40;;;;;;4946807;29;20031;-86
2022/07/29 09:36:30;;;;;;;0.30;0.30;;;25.80;81.80;;;;;;4947221;29;20039;-86
2022/07/29 09:39:00;;;;;;;0.08;0.08;;;25.50;78.10;;;;;;4946591;29;20026;-86
2022/07/29 09:41:27;;;;;;;0.63;0.30;;;25.80;76.90;;;;;;4947680;29;20041;-86
2022/07/29 09:43:57;;;;;;;0.15;0.15;;;25.80;76.90;;;;;;4929847;29;20314;-85
2022/07/29 09:46:24;;;;;;;0.22;0.20;;;26.70;74.20;;;;;;4947167;29;20459;-87
2022/07/29 09:49:10;;;;;;;0.15;0.15;;;28.00;71.10;;;;;;4947331;29;20035;-86
2022/07/29 09:51:36;;;;;;;;;;;29.70;68.60;;;;;;4947415;29;20027;-82
2022/07/29 09:54:20;;;;;;;0.00;0.00;;;30.90;66.10;;;;;;4947183;29;19984;-82
2022/07/29 09:56:47;;;;;;;3.55;0.20;;;33.50;60.70;;;;;;4946636;29;20038;-83
2022/07/29 09:59:13;;;;;;;0.00;0.00;;;34.30;57.40;;;;;;4948584;28;20023;-82
2022/07/29 10:01:39;;;;;;;0.10;0.10;;;34.90;57.40;;;;;;4929641;29;20031;-83
2022/07/29 10:04:05;;;;;;;;;;;32.40;57.60;;;;;;4947358;29;20023;-83
2022/07/29 10:06:31;;;;;;;2.53;0.70;;;32.30;58.60;;;;;;4946637;29;19913;-84
2022/07/29 10:09:09;;;;;;;0.10;0.10;;;30.60;60.60;;;;;;4946633;29;20143;-84
2022/07/29 10:11:35;;;;;;;0.10;0.10;;;29.50;62.50;;;;;;4946965;29;20119;-84
2022/07/29 10:14:03;;;;;;;0.00;0.00;;;28.40;64.10;;;;;;4946693;29;20103;-83
2022/07/29 10:16:32;;;;;;;0.10;0.10;;;27.50;65.30;;;;;;4946222;29;20055;-82
2022/07/29 10:18:59;;;;;;;0.00;0.00;;;27.60;65.50;;;;;;4944050;29;20027;-83
2022/07/29 10:21:25;;;;;;;0.00;0.00;;;27.50;66.70;;;;;;4945648;28;20045;-82
2022/07/29 10:23:53;;;;;;;0.00;0.00;;;27.30;67.00;;;;;;4946284;29;20037;-82
2022/07/29 10:26:19;;;;;;;0.00;0.00;;;26.90;67.70;;;;;;4946016;29;20643;-83
2022/07/29 10:28:45;;;;;;;0.30;0.30;;;26.80;67.90;;;;;;4945944;29;20419;-83
2022/07/29 10:31:22;;;;;;;0.13;0.13;;;26.70;68.60;;;;;;4946120;29;20027;-83
2022/07/29 10:33:56;;;;;;;0.00;0.00;;;26.70;69.50;;;;;;4945923;29;20043;-83
2022/07/29 10:36:45;;;;;;;0.08;0.08;;;27.10;69.20;;;;;;4945259;29;20114;-82
2022/07/29 10:39:26;;;;;;;0.15;0.15;;;27.70;67.60;;;;;;4937256;29;20035;-83
2022/07/29 10:42:13;;;;;;;0.00;0.00;;;27.30;68.00;;;;;;4945550;29;20039;-82
2022/07/29 10:44:42;;;;;;;0.00;0.00;;;26.80;69.20;;;;;;4943892;29;20019;-82
2022/07/29 10:47:18;;;;;;;0.13;0.13;;;27.00;69.20;;;;;;4945331;29;20517;-83
2022/07/29 10:49:56;;;;;;;0.05;0.05;;;26.90;69.00;;;;;;4928061;29;20086;-83
2022/07/29 10:52:24;;;;;;;0.00;0.00;;;26.50;70.30;;;;;;4945499;29;20023;-84
2022/07/29 10:54:51;;;;;;;0.10;0.10;;;26.70;70.50;;;;;;4928788;29;20788;-85
2022/07/29 10:57:16;;;;;;;0.35;0.20;;;26.10;71.70;;;;;;4945636;29;20057;-88
2022/07/29 10:59:45;;;;;;;1.60;0.83;;;26.10;72.90;;;;;;4946874;28;20495;-84
2022/07/29 11:02:32;;;;;;;0.10;0.10;;;26.00;73.00;;;;;;4945728;29;20035;-86
2022/07/29 11:04:59;;;;;;;0.10;0.00;;;26.20;73.00;;;;;;4927987;29;20039;-87
2022/07/29 11:07:26;;;;;;;0.28;0.28;;;26.00;72.70;;;;;;4945643;29;20483;-86
2022/07/29 11:10:16;;;;;;;0.40;0.20;;;25.50;74.70;;;;;;4945550;29;20027;-86
2022/07/29 11:12:46;;;;;;;0.15;0.15;;;25.50;75.20;;;;;;4945105;29;20058;-86
2022/07/29 11:15:21;;;;;;;0.98;0.25;;;25.40;76.10;;;;;;4945402;29;20046;-86
2022/07/29 11:18:00;;;;;;;0.43;0.43;;;25.60;76.40;;;;;;4945300;29;20043;-85
2022/07/29 11:20:45;;;;;;;0.10;0.10;;;25.60;76.70;;;;;;4945540;29;20031;-87
2022/07/29 11:23:23;;;;;;;0.17;0.17;;;25.50;77.60;;;;;;4945914;29;20104;-85
2022/07/29 11:26:12;;;;;;;0.13;0.13;;;25.50;78.30;;;;;;4946036;29;20050;-88
2022/07/29 11:29:03;;;;;;;0.15;0.15;;;25.20;78.80;;;;;;4945766;29;20031;-88
2022/07/29 11:31:41;;;;;;;0.30;0.20;;;25.20;78.90;;;;;;4937620;29;20035;-86
2022/07/29 11:34:20;;;;;;;0.00;0.00;;;25.00;80.50;;;;;;4943749;28;20125;-86
2022/07/29 11:37:14;;;;;;;0.45;0.30;;;25.00;81.00;;;;;;4928094;29;20374;-86
2022/07/29 11:39:46;;;;;;;0.00;0.00;;;24.70;81.80;;;;;;4941425;29;20566;-85
2022/07/29 11:42:21;;;;;;;0.25;0.22;;;24.90;82.30;;;;;;4927906;29;20027;-86
2022/07/29 11:45:05;;;;;;;0.10;0.10;;;25.10;80.90;;;;;;4946543;29;20031;-86
2022/07/29 11:47:32;;;;;;;0.10;0.10;;;25.00;82.20;;;;;;4945597;29;20086;-87
2022/07/29 11:49:59;;;;;;;0.25;0.10;;;25.50;80.60;;;;;;4945905;29;20038;-86
2022/07/29 11:52:46;;;;;;;0.22;0.22;;;25.70;80.90;;;;;;4943406;29;20074;-81
2022/07/29 11:55:20;;;;;;;0.05;0.05;;;25.90;78.70;;;;;;4945569;29;20050;-81
2022/07/29 11:57:53;;;;;;;0.10;0.10;;;26.00;78.40;;;;;;4945503;29;20035;-82
2022/07/29 12:00:30;;;;;;;1.25;0.82;;;25.70;77.80;;;;;;4950491;28;20023;-82
2022/07/29 12:02:57;;;;;;;0.10;0.10;;;25.60;74.70;;;;;;4928596;29;20473;-83
2022/07/29 12:05:31;;;;;;;0.17;0.10;;;25.60;73.80;;;;;;4945608;29;20042;-81
2022/07/29 12:08:08;;;;;;;1.45;0.57;;;25.70;75.10;;;;;;4943300;29;20027;-81
2022/07/29 12:10:34;;;;;;;0.10;0.10;;;25.70;74.60;;;;;;4943660;29;20121;-81
2022/07/29 12:13:00;;;;;;;7.13;0.20;;;25.40;74.10;;;;;;4944709;29;20034;-81
2022/07/29 12:15:26;;;;;;;0.00;0.00;;;25.40;75.30;;;;;;4935398;29;20047;-81
2022/07/29 12:17:52;;;;;;;0.10;0.10;;;25.20;75.80;;;;;;4944700;29;20274;-83
2022/07/29 12:20:29;;;;;;;0.10;0.10;;;25.20;76.30;;;;;;4944985;29;20063;-82
2022/07/29 12:22:55;;;;;;;0.65;0.20;;;25.10;76.10;;;;;;4944973;29;20023;-82
2022/07/29 12:25:23;;;;;;;0.00;0.00;;;24.90;77.00;;;;;;4927477;29;20529;-82
2022/07/29 12:28:00;;;;;;;0.20;0.20;;;25.10;76.70;;;;;;4945120;29;20066;-82
2022/07/29 12:30:35;;;;;;;0.08;0.08;;;25.00;75.80;;;;;;4944919;29;20031;-83
2022/07/29 12:33:01;;;;;;;0.10;0.10;;;24.40;77.10;;;;;;4927797;29;20063;-82
2022/07/29 12:35:27;;;;;;;0.30;0.20;;;24.60;76.40;;;;;;4945294;29;20183;-83
2022/07/29 12:37:54;;;;;;;0.13;0.10;;;24.90;75.80;;;;;;4944499;29;20267;-83
2022/07/29 12:40:21;;;;;;;0.65;0.38;;;24.90;75.70;;;;;;4943798;29;20052;-82
2022/07/29 12:43:07;;;;;;;0.10;0.10;;;25.10;75.10;;;;;;4944068;29;20023;-82
2022/07/29 12:45:32;;;;;;;0.30;0.20;;;25.10;73.60;;;;;;4915060;29;20043;-82
2022/07/29 12:47:58;;;;;;;0.13;0.10;;;25.20;73.70;;;;;;4915976;29;20024;-83
2022/07/29 12:50:24;;;;;;;0.07;0.07;;;24.70;72.20;;;;;;4948019;29;20059;-83
2022/07/29 12:52:50;;;;;;;0.20;0.20;;;24.40;73.30;;;;;;4948040;29;20495;-83
2022/07/29 12:55:39;;;;;;;2.90;0.60;;;24.20;73.50;;;;;;4947577;29;20042;-83
2022/07/29 12:58:05;;;;;;;0.00;0.00;;;23.90;74.80;;;;;;4947264;29;20031;-83
2022/07/29 13:00:30;;;;;;;0.13;0.13;;;24.10;74.70;;;;;;4948622;28;20039;-83
2022/07/29 13:02:58;;;;;;;0.83;0.17;;;23.90;74.20;;;;;;4947481;29;20031;-82
2022/07/29 13:05:38;;;;;;;0.05;0.05;;;23.80;74.50;;;;;;4947927;29;20502;-82
2022/07/29 13:08:13;;;;;;;0.00;0.00;;;23.60;76.10;;;;;;4947506;29;20086;-83
2022/07/29 13:10:39;;;;;;;0.75;0.75;;;23.90;75.40;;;;;;4946425;29;20039;-83